sensor_id;sensor_type;location;lat;lon;timestamp;P1;durP1;ratioP1;P2;durP2;ratioP2
46334;SDS011;32051;48.882;9.210;2023-08-06T00:02:02;5.18;;;4.25;;
46334;SDS011;32051;48.882;9.210;2023-08-06T00:04:28;4.28;;;3.88;;
46334;SDS011;32051;48.882;9.210;2023-08-06T00:06:54;4.30;;;3.88;;
46334;SDS011;32051;48.882;9.210;2023-08-06T00:09:20;4.68;;;4.32;;
46334;SDS011;32051;48.882;9.210;2023-08-06T00:11:46;4.43;;;4.13;;
46334;SDS011;32051;48.882;9.210;2023-08-06T00:14:12;4.88;;;4.38;;
46334;SDS011;32051;48.882;9.210;2023-08-06T00:16:42;4.05;;;3.65;;
46334;SDS011;32051;48.882;9.210;2023-08-06T00:19:08;7.72;;;4.20;;
46334;SDS011;32051;48.882;9.210;2023-08-06T00:21:34;4.57;;;4.18;;
46334;SDS011;32051;48.882;9.210;2023-08-06T00:24:00;4.90;;;4.50;;
46334;SDS011;32051;48.882;9.210;2023-08-06T00:26:26;5.53;;;4.60;;
46334;SDS011;32051;48.882;9.210;2023-08-06T00:28:52;6.55;;;4.55;;
46334;SDS011;32051;48.882;9.210;2023-08-06T00:31:19;5.43;;;4.70;;
46334;SDS011;32051;48.882;9.210;2023-08-06T00:33:45;9.63;;;4.90;;
46334;SDS011;32051;48.882;9.210;2023-08-06T00:36:11;30.83;;;5.57;;
46334;SDS011;32051;48.882;9.210;2023-08-06T00:38:37;6.95;;;5.05;;
46334;SDS011;32051;48.882;9.210;2023-08-06T00:41:03;6.40;;;5.00;;
46334;SDS011;32051;48.882;9.210;2023-08-06T00:43:30;6.43;;;5.93;;
46334;SDS011;32051;48.882;9.210;2023-08-06T00:45:56;9.02;;;4.85;;
46334;SDS011;32051;48.882;9.210;2023-08-06T00:48:22;7.35;;;5.65;;
46334;SDS011;32051;48.882;9.210;2023-08-06T00:50:48;5.72;;;5.28;;
46334;SDS011;32051;48.882;9.210;2023-08-06T00:53:14;10.48;;;5.72;;
46334;SDS011;32051;48.882;9.210;2023-08-06T00:55:41;5.82;;;5.30;;
46334;SDS011;32051;48.882;9.210;2023-08-06T00:58:10;4.95;;;4.63;;
46334;SDS011;32051;48.882;9.210;2023-08-06T01:00:37;6.55;;;5.95;;
46334;SDS011;32051;48.882;9.210;2023-08-06T01:03:03;6.32;;;5.82;;
46334;SDS011;32051;48.882;9.210;2023-08-06T01:05:29;6.68;;;5.60;;
46334;SDS011;32051;48.882;9.210;2023-08-06T01:08:06;7.07;;;5.97;;
46334;SDS011;32051;48.882;9.210;2023-08-06T01:15:58;6.75;;;5.57;;
46334;SDS011;32051;48.882;9.210;2023-08-06T01:18:25;7.15;;;6.47;;
46334;SDS011;32051;48.882;9.210;2023-08-06T01:20:51;6.72;;;6.22;;
46334;SDS011;32051;48.882;9.210;2023-08-06T01:23:18;8.15;;;7.38;;
46334;SDS011;32051;48.882;9.210;2023-08-06T01:26:00;9.82;;;6.50;;
46334;SDS011;32051;48.882;9.210;2023-08-06T01:31:01;7.20;;;6.60;;
46334;SDS011;32051;48.882;9.210;2023-08-06T01:33:28;8.15;;;7.35;;
46334;SDS011;32051;48.882;9.210;2023-08-06T01:35:57;9.38;;;7.65;;
46334;SDS011;32051;48.882;9.210;2023-08-06T01:38:23;8.38;;;7.05;;
46334;SDS011;32051;48.882;9.210;2023-08-06T01:40:50;7.53;;;7.03;;
46334;SDS011;32051;48.882;9.210;2023-08-06T01:43:16;8.45;;;7.57;;
46334;SDS011;32051;48.882;9.210;2023-08-06T01:45:42;10.55;;;8.68;;
46334;SDS011;32051;48.882;9.210;2023-08-06T01:48:08;8.40;;;7.75;;
46334;SDS011;32051;48.882;9.210;2023-08-06T01:50:34;9.02;;;8.35;;
46334;SDS011;32051;48.882;9.210;2023-08-06T01:53:00;10.90;;;8.65;;
46334;SDS011;32051;48.882;9.210;2023-08-06T01:55:26;10.13;;;8.70;;
46334;SDS011;32051;48.882;9.210;2023-08-06T01:57:52;10.07;;;9.07;;
46334;SDS011;32051;48.882;9.210;2023-08-06T02:00:18;9.90;;;7.30;;
46334;SDS011;32051;48.882;9.210;2023-08-06T02:02:45;10.35;;;7.72;;
46334;SDS011;32051;48.882;9.210;2023-08-06T02:05:11;9.15;;;7.43;;
46334;SDS011;32051;48.882;9.210;2023-08-06T02:07:38;9.88;;;6.10;;
46334;SDS011;32051;48.882;9.210;2023-08-06T02:10:05;6.15;;;5.65;;
46334;SDS011;32051;48.882;9.210;2023-08-06T02:12:31;12.27;;;6.00;;
46334;SDS011;32051;48.882;9.210;2023-08-06T02:14:57;6.32;;;5.72;;
46334;SDS011;32051;48.882;9.210;2023-08-06T02:17:23;4.57;;;4.18;;
46334;SDS011;32051;48.882;9.210;2023-08-06T02:19:49;5.00;;;4.53;;
46334;SDS011;32051;48.882;9.210;2023-08-06T02:22:15;3.63;;;3.33;;
46334;SDS011;32051;48.882;9.210;2023-08-06T02:24:41;3.60;;;3.33;;
46334;SDS011;32051;48.882;9.210;2023-08-06T02:27:09;3.70;;;3.38;;
46334;SDS011;32051;48.882;9.210;2023-08-06T02:29:35;3.28;;;3.08;;
46334;SDS011;32051;48.882;9.210;2023-08-06T02:32:01;3.00;;;2.80;;
46334;SDS011;32051;48.882;9.210;2023-08-06T02:34:27;2.65;;;2.53;;
46334;SDS011;32051;48.882;9.210;2023-08-06T02:36:53;7.15;;;3.15;;
46334;SDS011;32051;48.882;9.210;2023-08-06T02:39:20;3.33;;;2.65;;
46334;SDS011;32051;48.882;9.210;2023-08-06T02:41:46;3.25;;;2.63;;
46334;SDS011;32051;48.882;9.210;2023-08-06T02:44:12;2.72;;;2.63;;
46334;SDS011;32051;48.882;9.210;2023-08-06T02:46:38;2.88;;;2.67;;
46334;SDS011;32051;48.882;9.210;2023-08-06T02:49:04;7.97;;;2.70;;
46334;SDS011;32051;48.882;9.210;2023-08-06T02:51:30;2.53;;;2.33;;
46334;SDS011;32051;48.882;9.210;2023-08-06T02:53:56;3.05;;;2.50;;
46334;SDS011;32051;48.882;9.210;2023-08-06T02:56:22;2.78;;;2.38;;
46334;SDS011;32051;48.882;9.210;2023-08-06T02:58:57;6.28;;;2.50;;
46334;SDS011;32051;48.882;9.210;2023-08-06T03:01:40;2.08;;;1.98;;
46334;SDS011;32051;48.882;9.210;2023-08-06T03:04:14;7.50;;;3.38;;
46334;SDS011;32051;48.882;9.210;2023-08-06T03:06:46;10.15;;;2.50;;
46334;SDS011;32051;48.882;9.210;2023-08-06T03:09:12;3.00;;;2.28;;
46334;SDS011;32051;48.882;9.210;2023-08-06T03:11:38;4.35;;;2.80;;
46334;SDS011;32051;48.882;9.210;2023-08-06T03:14:09;4.82;;;2.58;;
46334;SDS011;32051;48.882;9.210;2023-08-06T03:16:37;2.85;;;2.65;;
46334;SDS011;32051;48.882;9.210;2023-08-06T03:19:03;5.00;;;2.60;;
46334;SDS011;32051;48.882;9.210;2023-08-06T03:21:29;3.28;;;2.50;;
46334;SDS011;32051;48.882;9.210;2023-08-06T03:23:56;3.60;;;3.30;;
46334;SDS011;32051;48.882;9.210;2023-08-06T03:26:26;6.38;;;3.15;;
46334;SDS011;32051;48.882;9.210;2023-08-06T03:28:52;4.75;;;2.78;;
46334;SDS011;32051;48.882;9.210;2023-08-06T03:31:19;3.13;;;2.22;;
46334;SDS011;32051;48.882;9.210;2023-08-06T03:33:45;3.30;;;3.08;;
46334;SDS011;32051;48.882;9.210;2023-08-06T03:36:15;3.05;;;2.47;;
46334;SDS011;32051;48.882;9.210;2023-08-06T03:38:42;4.95;;;2.60;;
46334;SDS011;32051;48.882;9.210;2023-08-06T03:41:10;2.15;;;2.05;;
46334;SDS011;32051;48.882;9.210;2023-08-06T03:43:37;4.78;;;2.72;;
46334;SDS011;32051;48.882;9.210;2023-08-06T03:46:08;2.63;;;2.43;;
46334;SDS011;32051;48.882;9.210;2023-08-06T03:48:34;3.42;;;2.08;;
46334;SDS011;32051;48.882;9.210;2023-08-06T03:51:01;9.63;;;2.55;;
46334;SDS011;32051;48.882;9.210;2023-08-06T03:53:27;7.35;;;3.50;;
46334;SDS011;32051;48.882;9.210;2023-08-06T03:55:53;2.25;;;2.15;;
46334;SDS011;32051;48.882;9.210;2023-08-06T03:58:21;5.47;;;2.42;;
46334;SDS011;32051;48.882;9.210;2023-08-06T04:00:47;6.30;;;3.08;;
46334;SDS011;32051;48.882;9.210;2023-08-06T04:03:13;10.07;;;2.90;;
46334;SDS011;32051;48.882;9.210;2023-08-06T04:05:41;6.43;;;2.75;;
46334;SDS011;32051;48.882;9.210;2023-08-06T04:08:07;4.88;;;2.13;;
46334;SDS011;32051;48.882;9.210;2023-08-06T04:10:33;6.95;;;2.65;;
46334;SDS011;32051;48.882;9.210;2023-08-06T04:12:59;2.95;;;2.08;;
46334;SDS011;32051;48.882;9.210;2023-08-06T04:15:26;1.88;;;1.77;;
46334;SDS011;32051;48.882;9.210;2023-08-06T04:17:52;3.03;;;2.10;;
46334;SDS011;32051;48.882;9.210;2023-08-06T04:20:18;2.10;;;2.00;;
46334;SDS011;32051;48.882;9.210;2023-08-06T04:22:44;1.95;;;1.85;;
46334;SDS011;32051;48.882;9.210;2023-08-06T04:25:10;3.42;;;2.22;;
46334;SDS011;32051;48.882;9.210;2023-08-06T04:27:36;2.63;;;2.40;;
46334;SDS011;32051;48.882;9.210;2023-08-06T04:30:07;2.00;;;1.88;;
46334;SDS011;32051;48.882;9.210;2023-08-06T04:32:35;2.50;;;2.08;;
46334;SDS011;32051;48.882;9.210;2023-08-06T04:35:01;2.80;;;1.92;;
46334;SDS011;32051;48.882;9.210;2023-08-06T04:37:27;11.68;;;1.70;;
46334;SDS011;32051;48.882;9.210;2023-08-06T04:39:53;3.47;;;2.58;;
46334;SDS011;32051;48.882;9.210;2023-08-06T04:42:19;2.67;;;2.30;;
46334;SDS011;32051;48.882;9.210;2023-08-06T04:44:46;4.10;;;2.45;;
46334;SDS011;32051;48.882;9.210;2023-08-06T04:47:12;3.00;;;2.30;;
46334;SDS011;32051;48.882;9.210;2023-08-06T04:49:38;2.28;;;1.95;;
46334;SDS011;32051;48.882;9.210;2023-08-06T04:52:04;2.67;;;2.17;;
46334;SDS011;32051;48.882;9.210;2023-08-06T04:54:30;2.55;;;2.13;;
46334;SDS011;32051;48.882;9.210;2023-08-06T04:56:56;11.50;;;2.00;;
46334;SDS011;32051;48.882;9.210;2023-08-06T04:59:22;4.50;;;1.83;;
46334;SDS011;32051;48.882;9.210;2023-08-06T05:01:48;4.10;;;2.50;;
46334;SDS011;32051;48.882;9.210;2023-08-06T05:04:14;4.45;;;1.80;;
46334;SDS011;32051;48.882;9.210;2023-08-06T05:06:40;3.05;;;2.10;;
46334;SDS011;32051;48.882;9.210;2023-08-06T05:09:06;1.77;;;1.63;;
46334;SDS011;32051;48.882;9.210;2023-08-06T05:11:33;7.68;;;1.95;;
46334;SDS011;32051;48.882;9.210;2023-08-06T05:13:59;2.03;;;1.83;;
46334;SDS011;32051;48.882;9.210;2023-08-06T05:16:25;5.28;;;1.70;;
46334;SDS011;32051;48.882;9.210;2023-08-06T05:18:51;2.03;;;1.75;;
46334;SDS011;32051;48.882;9.210;2023-08-06T05:21:17;4.78;;;1.45;;
46334;SDS011;32051;48.882;9.210;2023-08-06T05:23:43;7.15;;;1.65;;
46334;SDS011;32051;48.882;9.210;2023-08-06T05:26:09;1.88;;;1.67;;
46334;SDS011;32051;48.882;9.210;2023-08-06T05:28:35;2.38;;;1.75;;
46334;SDS011;32051;48.882;9.210;2023-08-06T05:31:04;1.98;;;1.10;;
46334;SDS011;32051;48.882;9.210;2023-08-06T05:33:30;7.93;;;1.50;;
46334;SDS011;32051;48.882;9.210;2023-08-06T05:35:56;3.08;;;1.20;;
46334;SDS011;32051;48.882;9.210;2023-08-06T05:38:22;8.07;;;1.42;;
46334;SDS011;32051;48.882;9.210;2023-08-06T05:40:48;2.25;;;1.40;;
46334;SDS011;32051;48.882;9.210;2023-08-06T05:43:15;1.77;;;1.67;;
46334;SDS011;32051;48.882;9.210;2023-08-06T05:45:44;4.30;;;1.48;;
46334;SDS011;32051;48.882;9.210;2023-08-06T05:48:10;7.82;;;2.53;;
46334;SDS011;32051;48.882;9.210;2023-08-06T05:50:36;5.60;;;2.13;;
46334;SDS011;32051;48.882;9.210;2023-08-06T05:53:02;2.90;;;1.33;;
46334;SDS011;32051;48.882;9.210;2023-08-06T05:55:28;1.77;;;1.67;;
46334;SDS011;32051;48.882;9.210;2023-08-06T05:57:56;6.22;;;1.70;;
46334;SDS011;32051;48.882;9.210;2023-08-06T06:00:22;5.18;;;1.10;;
46334;SDS011;32051;48.882;9.210;2023-08-06T06:02:48;3.55;;;1.35;;
46334;SDS011;32051;48.882;9.210;2023-08-06T06:05:14;8.38;;;1.88;;
46334;SDS011;32051;48.882;9.210;2023-08-06T06:07:40;2.88;;;1.40;;
46334;SDS011;32051;48.882;9.210;2023-08-06T06:10:06;1.95;;;1.65;;
46334;SDS011;32051;48.882;9.210;2023-08-06T06:12:32;1.55;;;1.10;;
46334;SDS011;32051;48.882;9.210;2023-08-06T06:14:58;2.75;;;0.98;;
46334;SDS011;32051;48.882;9.210;2023-08-06T06:17:26;3.05;;;0.70;;
46334;SDS011;32051;48.882;9.210;2023-08-06T06:19:52;1.13;;;1.13;;
46334;SDS011;32051;48.882;9.210;2023-08-06T06:22:18;1.75;;;1.25;;
46334;SDS011;32051;48.882;9.210;2023-08-06T06:24:44;3.03;;;0.95;;
46334;SDS011;32051;48.882;9.210;2023-08-06T06:27:10;11.95;;;1.10;;
46334;SDS011;32051;48.882;9.210;2023-08-06T06:29:36;0.77;;;0.50;;
46334;SDS011;32051;48.882;9.210;2023-08-06T06:32:02;0.43;;;0.43;;
46334;SDS011;32051;48.882;9.210;2023-08-06T06:34:28;0.95;;;0.65;;
46334;SDS011;32051;48.882;9.210;2023-08-06T06:36:54;1.02;;;0.73;;
46334;SDS011;32051;48.882;9.210;2023-08-06T06:39:20;2.17;;;0.95;;
46334;SDS011;32051;48.882;9.210;2023-08-06T06:41:46;0.40;;;0.40;;
46334;SDS011;32051;48.882;9.210;2023-08-06T06:44:22;1.08;;;0.32;;
46334;SDS011;32051;48.882;9.210;2023-08-06T06:46:48;3.45;;;0.60;;
46334;SDS011;32051;48.882;9.210;2023-08-06T06:49:14;1.17;;;0.50;;
46334;SDS011;32051;48.882;9.210;2023-08-06T06:51:40;1.65;;;0.75;;
46334;SDS011;32051;48.882;9.210;2023-08-06T06:54:06;1.98;;;1.15;;
46334;SDS011;32051;48.882;9.210;2023-08-06T06:56:32;4.32;;;0.80;;
46334;SDS011;32051;48.882;9.210;2023-08-06T06:58:58;0.70;;;0.47;;
46334;SDS011;32051;48.882;9.210;2023-08-06T07:01:24;1.83;;;0.30;;
46334;SDS011;32051;48.882;9.210;2023-08-06T07:03:50;1.08;;;0.57;;
46334;SDS011;32051;48.882;9.210;2023-08-06T07:06:17;1.80;;;0.80;;
46334;SDS011;32051;48.882;9.210;2023-08-06T07:08:43;0.80;;;0.60;;
46334;SDS011;32051;48.882;9.210;2023-08-06T07:11:09;0.55;;;0.50;;
46334;SDS011;32051;48.882;9.210;2023-08-06T07:13:35;5.63;;;2.38;;
46334;SDS011;32051;48.882;9.210;2023-08-06T07:16:02;3.25;;;0.30;;
46334;SDS011;32051;48.882;9.210;2023-08-06T07:18:28;0.30;;;0.30;;
46334;SDS011;32051;48.882;9.210;2023-08-06T07:20:54;3.92;;;0.30;;
46334;SDS011;32051;48.882;9.210;2023-08-06T07:23:21;0.32;;;0.32;;
46334;SDS011;32051;48.882;9.210;2023-08-06T07:25:47;4.43;;;0.40;;
46334;SDS011;32051;48.882;9.210;2023-08-06T07:28:14;1.08;;;0.43;;
46334;SDS011;32051;48.882;9.210;2023-08-06T07:30:40;2.72;;;0.60;;
46334;SDS011;32051;48.882;9.210;2023-08-06T07:33:06;0.20;;;0.20;;
46334;SDS011;32051;48.882;9.210;2023-08-06T07:35:33;2.10;;;0.20;;
46334;SDS011;32051;48.882;9.210;2023-08-06T07:37:59;0.10;;;0.10;;
46334;SDS011;32051;48.882;9.210;2023-08-06T07:40:25;0.28;;;0.25;;
46334;SDS011;32051;48.882;9.210;2023-08-06T07:42:51;5.68;;;0.52;;
46334;SDS011;32051;48.882;9.210;2023-08-06T07:45:17;0.20;;;0.20;;
46334;SDS011;32051;48.882;9.210;2023-08-06T07:47:43;0.20;;;0.20;;
46334;SDS011;32051;48.882;9.210;2023-08-06T07:50:09;0.30;;;0.30;;
46334;SDS011;32051;48.882;9.210;2023-08-06T07:52:35;1.45;;;0.30;;
46334;SDS011;32051;48.882;9.210;2023-08-06T07:55:01;0.20;;;0.20;;
46334;SDS011;32051;48.882;9.210;2023-08-06T07:57:32;0.25;;;0.25;;
46334;SDS011;32051;48.882;9.210;2023-08-06T07:59:59;0.20;;;0.20;;
46334;SDS011;32051;48.882;9.210;2023-08-06T08:02:25;0.10;;;0.10;;
46334;SDS011;32051;48.882;9.210;2023-08-06T08:04:51;0.10;;;0.10;;
46334;SDS011;32051;48.882;9.210;2023-08-06T08:07:18;0.30;;;0.20;;
46334;SDS011;32051;48.882;9.210;2023-08-06T08:09:44;1.27;;;0.20;;
46334;SDS011;32051;48.882;9.210;2023-08-06T08:12:10;1.23;;;0.60;;
46334;SDS011;32051;48.882;9.210;2023-08-06T08:14:36;5.20;;;1.00;;
46334;SDS011;32051;48.882;9.210;2023-08-06T08:17:02;7.07;;;2.47;;
46334;SDS011;32051;48.882;9.210;2023-08-06T08:19:29;0.50;;;0.50;;
46334;SDS011;32051;48.882;9.210;2023-08-06T08:21:55;0.20;;;0.17;;
46334;SDS011;32051;48.882;9.210;2023-08-06T08:24:22;0.35;;;0.20;;
46334;SDS011;32051;48.882;9.210;2023-08-06T08:26:51;0.95;;;0.28;;
46334;SDS011;32051;48.882;9.210;2023-08-06T08:29:17;2.63;;;0.28;;
46334;SDS011;32051;48.882;9.210;2023-08-06T08:31:43;0.17;;;0.17;;
46334;SDS011;32051;48.882;9.210;2023-08-06T08:34:09;0.25;;;0.25;;
46334;SDS011;32051;48.882;9.210;2023-08-06T08:36:36;0.85;;;0.65;;
46334;SDS011;32051;48.882;9.210;2023-08-06T08:39:02;0.13;;;0.10;;
46334;SDS011;32051;48.882;9.210;2023-08-06T08:41:29;0.47;;;0.20;;
46334;SDS011;32051;48.882;9.210;2023-08-06T08:43:56;0.47;;;0.20;;
46334;SDS011;32051;48.882;9.210;2023-08-06T08:46:25;0.32;;;0.32;;
46334;SDS011;32051;48.882;9.210;2023-08-06T08:48:51;0.30;;;0.20;;
46334;SDS011;32051;48.882;9.210;2023-08-06T08:51:17;0.30;;;0.20;;
46334;SDS011;32051;48.882;9.210;2023-08-06T08:53:44;0.75;;;0.22;;
46334;SDS011;32051;48.882;9.210;2023-08-06T08:56:10;0.95;;;0.40;;
46334;SDS011;32051;48.882;9.210;2023-08-06T08:58:39;0.40;;;0.35;;
46334;SDS011;32051;48.882;9.210;2023-08-06T09:01:05;0.43;;;0.30;;
46334;SDS011;32051;48.882;9.210;2023-08-06T09:03:33;0.10;;;0.10;;
46334;SDS011;32051;48.882;9.210;2023-08-06T09:05:59;0.22;;;0.22;;
46334;SDS011;32051;48.882;9.210;2023-08-06T09:08:28;0.63;;;0.63;;
46334;SDS011;32051;48.882;9.210;2023-08-06T09:10:56;0.30;;;0.10;;
46334;SDS011;32051;48.882;9.210;2023-08-06T09:13:23;0.28;;;0.25;;
46334;SDS011;32051;48.882;9.210;2023-08-06T09:15:49;0.25;;;0.25;;
46334;SDS011;32051;48.882;9.210;2023-08-06T09:18:21;0.20;;;0.20;;
46334;SDS011;32051;48.882;9.210;2023-08-06T09:20:50;1.42;;;0.30;;
46334;SDS011;32051;48.882;9.210;2023-08-06T09:23:17;0.52;;;0.20;;
46334;SDS011;32051;48.882;9.210;2023-08-06T09:25:43;2.30;;;0.20;;
46334;SDS011;32051;48.882;9.210;2023-08-06T09:28:09;0.20;;;0.20;;
46334;SDS011;32051;48.882;9.210;2023-08-06T09:30:36;0.10;;;0.10;;
46334;SDS011;32051;48.882;9.210;2023-08-06T09:33:02;0.20;;;0.20;;
46334;SDS011;32051;48.882;9.210;2023-08-06T09:35:29;0.60;;;0.20;;
46334;SDS011;32051;48.882;9.210;2023-08-06T09:37:55;0.32;;;0.32;;
46334;SDS011;32051;48.882;9.210;2023-08-06T09:42:51;0.20;;;0.20;;
46334;SDS011;32051;48.882;9.210;2023-08-06T09:45:17;0.30;;;0.30;;
46334;SDS011;32051;48.882;9.210;2023-08-06T09:47:43;0.30;;;0.30;;
46334;SDS011;32051;48.882;9.210;2023-08-06T09:50:18;0.30;;;0.30;;
46334;SDS011;32051;48.882;9.210;2023-08-06T09:52:45;0.20;;;0.20;;
46334;SDS011;32051;48.882;9.210;2023-08-06T09:55:12;0.10;;;0.10;;
46334;SDS011;32051;48.882;9.210;2023-08-06T09:57:39;0.20;;;0.20;;
46334;SDS011;32051;48.882;9.210;2023-08-06T10:00:07;0.20;;;0.20;;
46334;SDS011;32051;48.882;9.210;2023-08-06T10:02:38;0.10;;;0.10;;
46334;SDS011;32051;48.882;9.210;2023-08-06T10:05:05;0.82;;;0.10;;
46334;SDS011;32051;48.882;9.210;2023-08-06T10:07:31;0.17;;;0.10;;
46334;SDS011;32051;48.882;9.210;2023-08-06T10:09:58;9.75;;;0.52;;
46334;SDS011;32051;48.882;9.210;2023-08-06T10:12:25;0.10;;;0.10;;
46334;SDS011;32051;48.882;9.210;2023-08-06T10:14:55;0.10;;;0.10;;
46334;SDS011;32051;48.882;9.210;2023-08-06T10:17:23;0.30;;;0.20;;
46334;SDS011;32051;48.882;9.210;2023-08-06T10:19:49;0.10;;;0.10;;
46334;SDS011;32051;48.882;9.210;2023-08-06T10:22:17;0.17;;;0.17;;
46334;SDS011;32051;48.882;9.210;2023-08-06T10:24:53;0.10;;;0.10;;
46334;SDS011;32051;48.882;9.210;2023-08-06T10:27:22;0.10;;;0.10;;
46334;SDS011;32051;48.882;9.210;2023-08-06T10:29:49;0.20;;;0.20;;
46334;SDS011;32051;48.882;9.210;2023-08-06T10:32:15;0.30;;;0.30;;
46334;SDS011;32051;48.882;9.210;2023-08-06T10:34:52;1.08;;;1.08;;
46334;SDS011;32051;48.882;9.210;2023-08-06T10:37:22;0.30;;;0.30;;
46334;SDS011;32051;48.882;9.210;2023-08-06T10:39:51;0.20;;;0.20;;
46334;SDS011;32051;48.882;9.210;2023-08-06T10:42:27;0.10;;;0.10;;
46334;SDS011;32051;48.882;9.210;2023-08-06T10:47:39;1.75;;;0.20;;
46334;SDS011;32051;48.882;9.210;2023-08-06T10:50:06;2.55;;;0.10;;
46334;SDS011;32051;48.882;9.210;2023-08-06T10:52:34;0.10;;;0.10;;
46334;SDS011;32051;48.882;9.210;2023-08-06T10:55:00;0.10;;;0.10;;
46334;SDS011;32051;48.882;9.210;2023-08-06T10:57:26;0.10;;;0.10;;
46334;SDS011;32051;48.882;9.210;2023-08-06T10:59:52;0.10;;;0.10;;
46334;SDS011;32051;48.882;9.210;2023-08-06T11:02:18;0.30;;;0.10;;
46334;SDS011;32051;48.882;9.210;2023-08-06T11:04:44;0.10;;;0.10;;
46334;SDS011;32051;48.882;9.210;2023-08-06T11:07:10;0.20;;;0.20;;
46334;SDS011;32051;48.882;9.210;2023-08-06T11:09:37;1.17;;;0.35;;
46334;SDS011;32051;48.882;9.210;2023-08-06T11:12:05;1.25;;;0.30;;
46334;SDS011;32051;48.882;9.210;2023-08-06T11:14:32;0.75;;;0.25;;
46334;SDS011;32051;48.882;9.210;2023-08-06T11:16:58;0.95;;;0.25;;
46334;SDS011;32051;48.882;9.210;2023-08-06T11:19:24;0.30;;;0.30;;
46334;SDS011;32051;48.882;9.210;2023-08-06T11:21:51;1.10;;;0.40;;
46334;SDS011;32051;48.882;9.210;2023-08-06T11:24:17;0.82;;;0.68;;
46334;SDS011;32051;48.882;9.210;2023-08-06T11:26:43;0.40;;;0.40;;
46334;SDS011;32051;48.882;9.210;2023-08-06T11:29:09;0.63;;;0.30;;
46334;SDS011;32051;48.882;9.210;2023-08-06T11:31:35;0.30;;;0.30;;
46334;SDS011;32051;48.882;9.210;2023-08-06T11:34:02;0.30;;;0.30;;
46334;SDS011;32051;48.882;9.210;2023-08-06T11:36:29;3.30;;;1.05;;
46334;SDS011;32051;48.882;9.210;2023-08-06T11:38:56;0.73;;;0.73;;
46334;SDS011;32051;48.882;9.210;2023-08-06T11:41:22;0.40;;;0.40;;
46334;SDS011;32051;48.882;9.210;2023-08-06T11:43:48;0.55;;;0.52;;
46334;SDS011;32051;48.882;9.210;2023-08-06T11:46:14;5.93;;;0.47;;
46334;SDS011;32051;48.882;9.210;2023-08-06T11:51:21;4.30;;;0.70;;
46334;SDS011;32051;48.882;9.210;2023-08-06T11:53:51;1.80;;;0.60;;
46334;SDS011;32051;48.882;9.210;2023-08-06T11:56:20;0.82;;;0.82;;
46334;SDS011;32051;48.882;9.210;2023-08-06T11:58:46;1.48;;;0.50;;
46334;SDS011;32051;48.882;9.210;2023-08-06T12:01:13;1.50;;;0.60;;
46334;SDS011;32051;48.882;9.210;2023-08-06T12:03:39;0.80;;;0.80;;
46334;SDS011;32051;48.882;9.210;2023-08-06T12:06:06;1.45;;;1.23;;
46334;SDS011;32051;48.882;9.210;2023-08-06T12:08:35;3.80;;;1.13;;
46334;SDS011;32051;48.882;9.210;2023-08-06T12:11:03;2.65;;;1.38;;
46334;SDS011;32051;48.882;9.210;2023-08-06T12:13:29;1.15;;;0.70;;
46334;SDS011;32051;48.882;9.210;2023-08-06T12:15:55;2.25;;;1.38;;
46334;SDS011;32051;48.882;9.210;2023-08-06T12:18:22;4.45;;;0.85;;
46334;SDS011;32051;48.882;9.210;2023-08-06T12:20:48;1.13;;;1.00;;
46334;SDS011;32051;48.882;9.210;2023-08-06T12:23:15;3.42;;;1.45;;
46334;SDS011;32051;48.882;9.210;2023-08-06T12:25:41;2.67;;;1.55;;
46334;SDS011;32051;48.882;9.210;2023-08-06T12:28:09;1.02;;;1.00;;
46334;SDS011;32051;48.882;9.210;2023-08-06T12:30:37;4.20;;;1.80;;
46334;SDS011;32051;48.882;9.210;2023-08-06T12:33:06;1.90;;;1.70;;
46334;SDS011;32051;48.882;9.210;2023-08-06T12:35:33;4.10;;;1.73;;
46334;SDS011;32051;48.882;9.210;2023-08-06T12:37:59;1.38;;;1.27;;
46334;SDS011;32051;48.882;9.210;2023-08-06T12:40:25;4.25;;;1.70;;
46334;SDS011;32051;48.882;9.210;2023-08-06T12:42:51;6.05;;;2.70;;
46334;SDS011;32051;48.882;9.210;2023-08-06T12:45:17;1.77;;;1.48;;
46334;SDS011;32051;48.882;9.210;2023-08-06T12:47:46;3.65;;;1.38;;
46334;SDS011;32051;48.882;9.210;2023-08-06T12:50:12;3.10;;;1.00;;
46334;SDS011;32051;48.882;9.210;2023-08-06T12:52:38;3.95;;;1.00;;
46334;SDS011;32051;48.882;9.210;2023-08-06T12:55:04;3.47;;;0.75;;
46334;SDS011;32051;48.882;9.210;2023-08-06T12:57:30;0.93;;;0.80;;
46334;SDS011;32051;48.882;9.210;2023-08-06T12:59:56;1.98;;;1.30;;
46334;SDS011;32051;48.882;9.210;2023-08-06T13:02:22;0.77;;;0.75;;
46334;SDS011;32051;48.882;9.210;2023-08-06T13:04:49;3.28;;;0.60;;
46334;SDS011;32051;48.882;9.210;2023-08-06T13:07:15;0.60;;;0.60;;
46334;SDS011;32051;48.882;9.210;2023-08-06T13:09:41;1.65;;;0.70;;
46334;SDS011;32051;48.882;9.210;2023-08-06T13:12:07;6.53;;;2.15;;
46334;SDS011;32051;48.882;9.210;2023-08-06T13:14:33;0.98;;;0.88;;
46334;SDS011;32051;48.882;9.210;2023-08-06T13:17:00;6.82;;;0.88;;
46334;SDS011;32051;48.882;9.210;2023-08-06T13:19:27;0.73;;;0.50;;
46334;SDS011;32051;48.882;9.210;2023-08-06T13:22:03;2.80;;;0.70;;
46334;SDS011;32051;48.882;9.210;2023-08-06T13:24:32;0.85;;;0.85;;
46334;SDS011;32051;48.882;9.210;2023-08-06T13:26:58;1.70;;;1.00;;
46334;SDS011;32051;48.882;9.210;2023-08-06T13:29:24;1.73;;;0.60;;
46334;SDS011;32051;48.882;9.210;2023-08-06T13:31:51;1.05;;;0.60;;
46334;SDS011;32051;48.882;9.210;2023-08-06T13:34:17;0.57;;;0.40;;
46334;SDS011;32051;48.882;9.210;2023-08-06T13:36:43;2.15;;;1.35;;
46334;SDS011;32051;48.882;9.210;2023-08-06T13:39:10;1.40;;;0.50;;
46334;SDS011;32051;48.882;9.210;2023-08-06T13:41:37;0.60;;;0.50;;
46334;SDS011;32051;48.882;9.210;2023-08-06T13:44:04;0.90;;;0.57;;
46334;SDS011;32051;48.882;9.210;2023-08-06T13:46:30;0.22;;;0.22;;
46334;SDS011;32051;48.882;9.210;2023-08-06T13:48:56;4.43;;;0.60;;
46334;SDS011;32051;48.882;9.210;2023-08-06T13:51:22;0.70;;;0.25;;
46334;SDS011;32051;48.882;9.210;2023-08-06T13:53:48;5.00;;;0.47;;
46334;SDS011;32051;48.882;9.210;2023-08-06T13:56:14;0.47;;;0.47;;
46334;SDS011;32051;48.882;9.210;2023-08-06T13:58:42;0.60;;;0.40;;
46334;SDS011;32051;48.882;9.210;2023-08-06T14:01:13;1.10;;;0.40;;
46334;SDS011;32051;48.882;9.210;2023-08-06T14:03:42;4.05;;;1.10;;
46334;SDS011;32051;48.882;9.210;2023-08-06T14:06:08;2.05;;;0.52;;
46334;SDS011;32051;48.882;9.210;2023-08-06T14:08:34;4.68;;;0.40;;
46334;SDS011;32051;48.882;9.210;2023-08-06T14:11:01;0.95;;;0.45;;
46334;SDS011;32051;48.882;9.210;2023-08-06T14:13:27;2.78;;;0.30;;
46334;SDS011;32051;48.882;9.210;2023-08-06T14:15:53;0.40;;;0.40;;
46334;SDS011;32051;48.882;9.210;2023-08-06T14:18:19;0.32;;;0.30;;
46334;SDS011;32051;48.882;9.210;2023-08-06T14:20:45;1.58;;;0.40;;
46334;SDS011;32051;48.882;9.210;2023-08-06T14:23:11;1.58;;;0.55;;
46334;SDS011;32051;48.882;9.210;2023-08-06T14:25:37;0.95;;;0.60;;
46334;SDS011;32051;48.882;9.210;2023-08-06T14:28:04;0.80;;;0.70;;
46334;SDS011;32051;48.882;9.210;2023-08-06T14:30:31;1.67;;;0.50;;
46334;SDS011;32051;48.882;9.210;2023-08-06T14:32:58;1.02;;;1.02;;
46334;SDS011;32051;48.882;9.210;2023-08-06T14:35:25;0.80;;;0.50;;
46334;SDS011;32051;48.882;9.210;2023-08-06T14:37:51;1.05;;;0.70;;
46334;SDS011;32051;48.882;9.210;2023-08-06T14:40:17;0.50;;;0.50;;
46334;SDS011;32051;48.882;9.210;2023-08-06T14:42:43;1.65;;;0.50;;
46334;SDS011;32051;48.882;9.210;2023-08-06T14:45:10;0.75;;;0.70;;
46334;SDS011;32051;48.882;9.210;2023-08-06T14:47:36;0.85;;;0.50;;
46334;SDS011;32051;48.882;9.210;2023-08-06T14:50:02;1.75;;;0.45;;
46334;SDS011;32051;48.882;9.210;2023-08-06T14:52:28;0.50;;;0.50;;
46334;SDS011;32051;48.882;9.210;2023-08-06T14:54:54;0.90;;;0.82;;
46334;SDS011;32051;48.882;9.210;2023-08-06T14:57:21;1.98;;;0.70;;
46334;SDS011;32051;48.882;9.210;2023-08-06T14:59:52;11.43;;;0.82;;
46334;SDS011;32051;48.882;9.210;2023-08-06T15:02:18;0.50;;;0.50;;